createdAt,value
2023-06-17T00:01:18.992Z,69.40
2023-06-17T00:02:23.138Z,68.90
2023-06-17T00:02:55.351Z,68.70
2023-06-17T00:04:00.008Z,68.80
2023-06-17T00:05:04.641Z,68.60
2023-06-17T00:06:09.022Z,69.00
2023-06-17T00:07:46.032Z,68.30
2023-06-17T00:08:17.880Z,68.10
2023-06-17T00:08:51.802Z,68.90
2023-06-17T00:09:23.585Z,67.60
2023-06-17T00:09:55.586Z,67.80
2023-06-17T00:10:59.640Z,68.20
2023-06-17T00:11:33.516Z,66.60
2023-06-17T00:12:05.811Z,67.40
2023-06-17T00:13:10.320Z,66.90
2023-06-17T00:13:42.174Z,66.70
2023-06-17T00:14:14.311Z,67.20
2023-06-17T00:15:58.086Z,66.60
2023-06-17T00:16:33.763Z,65.70
2023-06-17T00:17:05.867Z,66.30
2023-06-17T00:19:50.724Z,64.40
2023-06-17T00:20:24.430Z,64.50
2023-06-17T00:20:58.960Z,64.10
2023-06-17T00:21:31.240Z,63.30
2023-06-17T00:22:36.743Z,58.30
2023-06-17T00:23:09.613Z,60.00
2023-06-17T00:23:41.429Z,58.60
2023-06-17T00:24:13.446Z,59.40
2023-06-17T00:25:17.472Z,61.20
2023-06-17T00:25:50.299Z,61.00
2023-06-17T00:26:22.626Z,60.70
2023-06-17T00:26:54.488Z,60.70
2023-06-17T00:27:58.653Z,60.40
2023-06-17T00:28:30.478Z,59.80
2023-06-17T00:29:02.277Z,59.40
2023-06-17T00:29:34.104Z,59.40
2023-06-17T00:30:07.041Z,59.10
2023-06-17T00:31:43.303Z,58.20
2023-06-17T00:32:47.690Z,58.00
2023-06-17T00:33:19.484Z,58.40
2023-06-17T00:33:51.344Z,58.30
2023-06-17T00:34:23.167Z,57.70
2023-06-17T00:34:56.742Z,57.30
2023-06-17T00:35:28.596Z,56.70
2023-06-17T00:36:00.444Z,56.40
2023-06-17T00:36:32.437Z,56.00
2023-06-17T00:37:04.477Z,55.80
2023-06-17T00:37:36.687Z,55.10
2023-06-17T00:38:09.551Z,55.30
2023-06-17T00:38:41.403Z,55.00
2023-06-17T00:39:14.587Z,55.10
2023-06-17T00:39:46.545Z,56.10
2023-06-17T00:40:18.664Z,55.20
2023-06-17T00:40:50.698Z,55.30
2023-06-17T00:41:22.709Z,55.00
2023-06-17T00:41:54.568Z,55.80
2023-06-17T00:42:26.387Z,55.20
2023-06-17T00:42:58.320Z,56.00
2023-06-17T00:43:30.172Z,55.20
2023-06-17T00:44:02.882Z,56.00
2023-06-17T00:44:34.755Z,56.30
2023-06-17T00:45:07.398Z,55.60
2023-06-17T00:45:42.163Z,55.50
2023-06-17T00:46:33.097Z,55.60
2023-06-17T00:47:05.450Z,55.80
2023-06-17T00:47:39.328Z,55.40
2023-06-17T00:48:12.539Z,55.60
2023-06-17T00:48:44.438Z,55.50
2023-06-17T00:49:16.589Z,54.80
2023-06-17T00:49:48.544Z,54.80
2023-06-17T00:50:21.080Z,54.90
2023-06-17T00:50:53.863Z,54.90
2023-06-17T00:51:25.779Z,55.60
2023-06-17T00:52:43.757Z,55.50
2023-06-17T00:53:15.875Z,55.60
2023-06-17T00:53:48.328Z,55.00
2023-06-17T00:54:20.210Z,55.30
2023-06-17T00:54:53.278Z,55.80
2023-06-17T00:55:25.519Z,55.70
2023-06-17T00:55:59.213Z,55.50
2023-06-17T00:56:32.612Z,55.30
2023-06-17T00:57:14.623Z,55.20
2023-06-17T00:57:48.589Z,55.70
2023-06-17T00:58:20.772Z,55.70
2023-06-17T00:58:55.226Z,55.90
2023-06-17T00:59:27.140Z,55.80
2023-06-17T00:59:59.213Z,54.90
2023-06-17T01:00:31.501Z,54.20
2023-06-17T01:01:03.751Z,55.80
2023-06-17T01:01:38.543Z,56.20
2023-06-17T01:02:12.142Z,55.30
2023-06-17T01:02:46.280Z,55.70
2023-06-17T01:03:20.374Z,56.00
2023-06-17T01:03:54.929Z,55.30
2023-06-17T01:04:26.850Z,55.40
2023-06-17T01:05:03.214Z,56.30
2023-06-17T01:05:35.841Z,56.00
2023-06-17T01:06:25.304Z,56.20
2023-06-17T01:07:43.718Z,55.00
2023-06-17T01:08:31.067Z,56.80
2023-06-17T01:09:06.475Z,57.60
2023-06-17T01:09:44.222Z,57.50
2023-06-17T01:10:23.270Z,58.00
2023-06-17T01:11:09.390Z,55.80
2023-06-17T01:11:44.297Z,57.80
2023-06-17T01:12:18.029Z,57.80
2023-06-17T01:12:53.759Z,58.00
2023-06-17T01:13:28.412Z,58.60
2023-06-17T01:14:01.937Z,58.70
2023-06-17T01:14:34.534Z,58.80
2023-06-17T01:15:07.150Z,58.70
2023-06-17T01:16:12.824Z,58.20
2023-06-17T01:16:45.624Z,58.80
2023-06-17T01:17:20.038Z,58.10
2023-06-17T01:17:56.437Z,58.00
2023-06-17T01:18:31.030Z,57.70
2023-06-17T01:20:09.181Z,57.00
2023-06-17T01:20:41.639Z,56.60
2023-06-17T01:21:13.672Z,57.10
2023-06-17T01:21:55.148Z,55.80
2023-06-17T01:22:28.869Z,55.90
2023-06-17T01:23:02.343Z,56.20
2023-06-17T01:23:38.897Z,55.50
2023-06-17T01:24:14.083Z,55.40
2023-06-17T01:24:50.257Z,55.90
2023-06-17T01:25:30.981Z,55.70
2023-06-17T01:26:06.209Z,55.80
2023-06-17T01:26:39.089Z,57.40
2023-06-17T01:27:13.062Z,56.20
2023-06-17T01:27:44.904Z,56.20
2023-06-17T01:28:54.427Z,55.30
2023-06-17T01:29:27.358Z,56.20
2023-06-17T01:29:59.613Z,56.60
2023-06-17T01:30:32.690Z,57.30
2023-06-17T01:31:38.191Z,56.50
2023-06-17T01:32:12.469Z,55.70
2023-06-17T01:32:44.367Z,56.30
2023-06-17T01:33:16.717Z,56.80
2023-06-17T01:33:51.601Z,57.20
2023-06-17T01:34:31.361Z,57.40
2023-06-17T01:35:14.181Z,57.40
2023-06-17T01:35:59.795Z,57.40
2023-06-17T01:36:37.409Z,57.50
2023-06-17T01:37:12.518Z,59.10
2023-06-17T01:37:50.628Z,57.40
2023-06-17T01:38:39.059Z,57.80
2023-06-17T01:39:17.241Z,57.50
2023-06-17T01:39:52.537Z,58.50
2023-06-17T01:40:27.248Z,58.50
2023-06-17T01:41:04.078Z,58.80
2023-06-17T01:41:43.027Z,59.50
2023-06-17T01:42:20.635Z,59.20
2023-06-17T01:42:54.742Z,56.80
2023-06-17T01:43:28.527Z,58.50
2023-06-17T01:44:03.722Z,58.60
2023-06-17T01:44:37.311Z,59.20
2023-06-17T01:45:09.932Z,59.60
2023-06-17T01:45:42.765Z,59.30
2023-06-17T01:46:16.135Z,59.40
2023-06-17T01:46:48.159Z,59.10
2023-06-17T01:47:20.454Z,58.90
2023-06-17T01:47:52.506Z,59.30
2023-06-17T01:48:25.038Z,58.00
2023-06-17T01:48:57.647Z,58.00
2023-06-17T01:49:29.584Z,58.10
2023-06-17T01:50:04.235Z,58.40
2023-06-17T01:50:36.038Z,58.70
2023-06-17T01:51:09.056Z,57.50
2023-06-17T01:51:40.872Z,59.70
2023-06-17T01:52:45.134Z,57.70
2023-06-17T01:53:16.996Z,62.00
2023-06-17T01:53:49.685Z,61.90
2023-06-17T01:54:21.475Z,62.00
2023-06-17T02:51:29.013Z,60.80
2023-06-17T02:52:00.877Z,56.00
2023-06-17T02:52:35.235Z,56.00
2023-06-17T02:53:08.617Z,55.60
2023-06-17T02:53:40.421Z,56.30
2023-06-17T02:54:12.642Z,56.30
2023-06-17T02:54:44.572Z,56.30
2023-06-17T02:55:26.625Z,56.30
2023-06-17T02:55:58.839Z,56.00
2023-06-17T02:56:30.898Z,56.40
2023-06-17T02:57:02.802Z,55.70
2023-06-17T02:57:34.668Z,56.30
2023-06-17T02:58:06.519Z,56.40
2023-06-17T02:58:44.451Z,56.40
2023-06-17T02:59:16.514Z,56.60
2023-06-17T02:59:48.614Z,56.70
2023-06-17T03:00:21.803Z,56.00
2023-06-17T03:00:55.443Z,56.50
2023-06-17T03:01:29.818Z,56.30
2023-06-17T03:02:01.781Z,56.60
2023-06-17T03:02:33.716Z,56.60
2023-06-17T03:03:05.664Z,56.00
2023-06-17T03:03:37.696Z,55.90
2023-06-17T03:04:11.931Z,55.70
2023-06-17T03:04:44.166Z,55.80
2023-06-17T03:05:17.833Z,55.70
2023-06-17T03:05:49.982Z,56.20
2023-06-17T03:06:24.115Z,56.20
2023-06-17T03:06:57.773Z,55.60
2023-06-17T03:07:36.854Z,55.80
2023-06-17T03:08:08.887Z,55.70
2023-06-17T03:08:42.056Z,56.20
2023-06-17T03:09:14.000Z,56.10
2023-06-17T03:09:46.242Z,56.10
2023-06-17T03:10:19.456Z,56.10
2023-06-17T03:10:56.949Z,55.40
2023-06-17T03:11:29.817Z,55.80
2023-06-17T03:12:04.177Z,55.50
2023-06-17T03:12:36.135Z,55.90
2023-06-17T03:13:08.003Z,55.30
2023-06-17T03:13:40.297Z,55.90
2023-06-17T03:14:20.649Z,56.00
2023-06-17T03:14:53.457Z,56.30
2023-06-17T03:15:27.447Z,56.60
2023-06-17T03:16:02.154Z,56.70
2023-06-17T03:17:44.956Z,55.10
2023-06-17T03:18:16.792Z,56.30
2023-06-17T03:18:48.597Z,56.40
2023-06-17T03:19:20.536Z,56.70
2023-06-17T03:19:52.464Z,56.20
2023-06-17T03:20:29.438Z,55.60
2023-06-17T03:21:01.825Z,55.70
2023-06-17T03:21:36.821Z,55.80
2023-06-17T03:22:09.074Z,56.00
2023-06-17T03:22:45.165Z,55.60
2023-06-17T03:23:18.967Z,55.30
2023-06-17T03:23:52.439Z,55.10
2023-06-17T03:24:24.718Z,55.50
2023-06-17T03:24:56.818Z,55.50
2023-06-17T03:25:29.844Z,55.80
2023-06-17T03:26:02.604Z,55.60
2023-06-17T03:26:35.225Z,55.60
2023-06-17T03:27:07.255Z,55.30
2023-06-17T03:27:39.066Z,55.30
2023-06-17T03:28:11.260Z,55.50
2023-06-17T03:28:43.715Z,55.30
2023-06-17T03:29:16.967Z,55.00
2023-06-17T03:29:50.147Z,55.10
2023-06-17T03:30:24.916Z,54.90
2023-06-17T03:30:57.218Z,55.70
2023-06-17T03:31:29.259Z,55.70
2023-06-17T03:32:01.113Z,55.20
2023-06-17T03:32:36.413Z,55.10
2023-06-17T03:33:09.730Z,54.80
2023-06-17T03:33:41.841Z,54.50
2023-06-17T03:34:13.687Z,55.20
2023-06-17T03:34:45.671Z,55.30
2023-06-17T03:35:18.125Z,55.00
2023-06-17T03:35:50.130Z,55.40
2023-06-17T03:36:31.647Z,55.60
2023-06-17T03:37:03.922Z,55.00
2023-06-17T03:38:09.524Z,54.20
2023-06-17T03:38:42.747Z,55.50
2023-06-17T03:39:14.595Z,55.40
2023-06-17T03:40:19.611Z,54.40
2023-06-17T03:40:52.351Z,55.60
2023-06-17T03:41:25.178Z,55.00
2023-06-17T03:41:57.082Z,55.00
2023-06-17T03:42:28.980Z,55.10
2023-06-17T03:43:00.832Z,55.10
2023-06-17T03:43:33.617Z,55.10
2023-06-17T03:44:05.648Z,55.30
2023-06-17T03:44:37.532Z,54.90
2023-06-17T03:45:10.032Z,54.70
2023-06-17T03:45:42.095Z,55.10
2023-06-17T03:46:14.329Z,55.30
2023-06-17T03:46:46.187Z,54.90
2023-06-17T03:47:17.981Z,55.20
2023-06-17T03:47:50.893Z,54.80
2023-06-17T03:48:22.765Z,55.30
2023-06-17T03:48:54.597Z,55.30
2023-06-17T03:49:26.751Z,54.80
2023-06-17T03:49:58.595Z,54.80
2023-06-17T03:50:31.021Z,54.50
2023-06-17T03:51:03.784Z,54.90
2023-06-17T03:51:35.688Z,54.80
2023-06-17T03:52:07.923Z,55.30
2023-06-17T03:52:39.860Z,56.10
2023-06-17T03:53:12.242Z,55.20
2023-06-17T03:53:44.012Z,55.60
2023-06-17T03:54:16.061Z,55.20
2023-06-17T03:54:47.890Z,56.00
2023-06-17T03:55:20.452Z,55.70
2023-06-17T03:55:52.388Z,55.50
2023-06-17T03:56:58.310Z,54.50
2023-06-17T03:57:30.129Z,56.40
2023-06-17T03:58:03.072Z,56.80
2023-06-17T03:58:37.222Z,57.10
2023-06-17T03:59:09.967Z,56.90
2023-06-17T03:59:41.990Z,56.70
2023-06-17T04:00:16.733Z,57.30
2023-06-17T04:00:48.982Z,57.20
2023-06-17T04:02:26.211Z,57.60
2023-06-17T04:03:35.603Z,54.50
2023-06-17T04:04:08.734Z,57.40
2023-06-17T04:04:41.241Z,58.20
2023-06-17T04:05:14.426Z,58.00
2023-06-17T04:05:46.800Z,58.40
2023-06-17T04:06:18.613Z,57.70
2023-06-17T04:06:50.579Z,58.40
2023-06-17T04:07:59.939Z,59.30
2023-06-17T04:08:33.997Z,66.60
2023-06-17T04:09:42.332Z,60.50
2023-06-17T04:11:24.691Z,59.50
2023-06-17T04:44:41.548Z,77.70
2023-06-17T04:52:30.767Z,80.50
2023-06-17T04:55:22.999Z,81.80
2023-06-17T04:57:32.759Z,85.40
2023-06-17T04:58:05.688Z,85.50
2023-06-17T04:58:56.417Z,85.60
2023-06-17T05:08:49.878Z,86.50
2023-06-17T05:09:56.128Z,84.90
2023-06-17T05:15:20.314Z,84.40
2023-06-17T05:15:52.206Z,83.80
2023-06-17T05:16:24.052Z,83.90
2023-06-17T05:19:07.195Z,84.80
2023-06-17T05:19:39.146Z,85.20
2023-06-17T05:21:53.990Z,85.70
2023-06-17T05:30:11.413Z,85.60
2023-06-17T05:30:45.800Z,85.00
2023-06-17T05:32:26.413Z,84.80
2023-06-17T05:34:35.952Z,85.20
2023-06-17T05:36:12.705Z,86.20
2023-06-17T05:36:44.869Z,86.50
2023-06-17T05:38:53.353Z,85.20
2023-06-17T05:46:33.089Z,88.70
2023-06-17T05:47:38.199Z,87.50
2023-06-17T05:48:10.193Z,88.30
2023-06-17T05:52:35.573Z,86.40
2023-06-17T05:55:17.470Z,86.30
2023-06-17T05:57:28.695Z,86.30
2023-06-17T05:58:33.312Z,86.70
2023-06-17T06:01:22.030Z,88.50
2023-06-17T06:01:54.302Z,89.10
2023-06-17T06:02:26.470Z,87.90
2023-06-17T06:02:58.475Z,88.40
2023-06-17T06:04:36.149Z,88.10
2023-06-17T06:05:08.489Z,88.30
2023-06-17T06:06:44.874Z,88.10
2023-06-17T06:09:25.821Z,89.10
2023-06-17T06:09:57.869Z,90.00
2023-06-17T06:10:29.896Z,90.10
2023-06-17T06:11:37.203Z,89.00
2023-06-17T06:13:15.097Z,87.60
2023-06-17T06:15:27.096Z,87.30
2023-06-17T06:18:41.216Z,87.20
2023-06-17T06:19:12.981Z,86.90
2023-06-17T06:20:51.449Z,86.90
2023-06-17T06:22:28.455Z,88.20
2023-06-17T06:23:35.003Z,88.20
2023-06-17T06:24:07.229Z,88.20
2023-06-17T06:24:41.980Z,88.00
2023-06-17T06:25:46.622Z,87.40
2023-06-17T06:26:18.967Z,87.40
2023-06-17T06:26:50.745Z,87.40
2023-06-17T06:28:31.717Z,87.60
2023-06-17T06:32:24.057Z,87.90
2023-06-17T06:32:57.013Z,88.00
2023-06-17T06:33:29.399Z,87.90
2023-06-17T06:35:06.570Z,88.40
2023-06-17T06:35:38.740Z,88.90
2023-06-17T06:37:17.270Z,87.90
2023-06-17T06:37:49.189Z,88.40
2023-06-17T06:38:22.596Z,88.80
2023-06-17T06:38:54.573Z,88.60
2023-06-17T06:40:01.467Z,88.80
2023-06-17T06:40:36.094Z,88.90
2023-06-17T06:41:44.992Z,89.10
2023-06-17T06:44:01.313Z,88.30
2023-06-17T06:44:33.158Z,88.50
2023-06-17T06:45:37.562Z,88.60
2023-06-17T06:46:09.550Z,88.90
2023-06-17T06:47:46.545Z,88.50
2023-06-17T06:50:28.066Z,88.40
2023-06-17T06:51:02.576Z,88.20
2023-06-17T06:52:39.982Z,88.70
2023-06-17T06:54:16.592Z,88.70
2023-06-17T06:54:48.429Z,88.30
2023-06-17T07:00:16.697Z,92.70
2023-06-17T07:01:23.932Z,90.70
2023-06-17T07:03:00.759Z,90.70
2023-06-17T07:05:49.243Z,91.10
2023-06-17T07:06:53.645Z,90.90
2023-06-17T07:07:30.689Z,90.90
2023-06-17T07:09:40.980Z,90.60
2023-06-17T07:10:12.750Z,91.30
2023-06-17T07:10:45.265Z,91.20
2023-06-17T07:11:49.337Z,91.20
2023-06-17T07:12:21.337Z,91.10
2023-06-17T07:12:53.241Z,91.00
2023-06-17T07:13:25.129Z,90.90
2023-06-17T07:13:59.573Z,90.60
2023-06-17T07:16:10.203Z,90.10
2023-06-17T07:16:42.154Z,90.00
2023-06-17T07:20:32.063Z,88.80
2023-06-17T07:21:36.593Z,89.60
2023-06-17T07:22:09.048Z,89.70
2023-06-17T07:22:41.120Z,89.90
2023-06-17T07:23:12.993Z,89.90
2023-06-17T07:23:44.809Z,74.60
2023-06-17T07:24:17.449Z,70.60
2023-06-17T07:24:49.292Z,70.50
2023-06-17T07:25:21.088Z,70.50
2023-06-17T07:25:55.916Z,70.90
2023-06-17T07:26:28.112Z,71.20
2023-06-17T07:26:59.952Z,71.50
2023-06-17T07:27:31.776Z,71.00
2023-06-17T07:28:04.301Z,72.60
2023-06-17T07:28:36.250Z,71.00
2023-06-17T07:29:08.240Z,71.50
2023-06-17T07:29:41.543Z,71.40
2023-06-17T07:30:13.771Z,72.40
2023-06-17T07:30:46.052Z,72.00
2023-06-17T07:31:18.074Z,81.00
2023-06-17T07:32:22.194Z,88.00
2023-06-17T07:36:42.556Z,90.90
2023-06-17T08:18:42.151Z,71.10
2023-06-17T08:19:14.090Z,68.00
2023-06-17T08:19:45.914Z,67.60
2023-06-17T08:20:18.304Z,68.30
2023-06-17T08:20:50.153Z,67.80
2023-06-17T08:21:22.004Z,68.10
2023-06-17T08:21:53.813Z,68.60
2023-06-17T08:22:25.630Z,69.80
2023-06-17T08:22:57.444Z,68.50
2023-06-17T08:23:29.236Z,68.30
2023-06-17T08:24:20.848Z,68.20
2023-06-17T08:24:52.708Z,65.00
2023-06-17T08:25:24.515Z,68.00
2023-06-17T08:25:57.600Z,68.20
2023-06-17T08:26:29.381Z,68.70
2023-06-17T08:27:01.166Z,68.40
2023-06-17T08:27:33.593Z,68.00
2023-06-17T08:28:05.384Z,68.30
2023-06-17T08:28:37.242Z,68.70
2023-06-17T08:29:09.045Z,68.20
2023-06-17T08:29:41.230Z,68.60
2023-06-17T08:30:13.293Z,68.40
2023-06-17T08:30:45.171Z,69.20
2023-06-17T08:31:17.749Z,68.60
2023-06-17T08:31:51.934Z,68.80
2023-06-17T08:32:23.726Z,67.80
2023-06-17T08:32:55.610Z,68.40
2023-06-17T08:33:27.940Z,68.00
2023-06-17T08:33:59.849Z,68.00
2023-06-17T08:34:33.542Z,68.80
2023-06-17T08:35:07.410Z,68.60
2023-06-17T08:35:39.336Z,68.10
2023-06-17T08:36:11.137Z,68.40
2023-06-17T08:36:46.501Z,68.30
2023-06-17T08:37:18.233Z,69.00
2023-06-17T08:37:50.168Z,68.40
2023-06-17T08:38:22.297Z,69.70
2023-06-17T08:38:54.283Z,68.80
2023-06-17T08:39:26.061Z,69.10
2023-06-17T08:39:57.851Z,69.10
2023-06-17T08:40:30.314Z,68.80
2023-06-17T08:41:02.218Z,68.60
2023-06-17T08:41:40.111Z,68.80
2023-06-17T08:42:12.170Z,69.10
2023-06-17T08:42:44.080Z,68.50
2023-06-17T08:43:20.553Z,69.00
2023-06-17T08:43:56.993Z,68.80
2023-06-17T08:44:34.354Z,69.50
2023-06-17T08:45:07.958Z,69.40
2023-06-17T08:45:40.999Z,68.20
2023-06-17T08:46:15.069Z,68.80
2023-06-17T08:46:49.367Z,69.30
2023-06-17T08:47:22.205Z,69.60
2023-06-17T08:47:54.080Z,68.90
2023-06-17T08:48:26.481Z,68.70
2023-06-17T08:48:59.440Z,68.70
2023-06-17T08:49:31.640Z,69.00
2023-06-17T08:50:03.941Z,68.70
2023-06-17T08:50:38.015Z,69.10
2023-06-17T08:51:10.952Z,69.20
2023-06-17T08:51:44.905Z,69.70
2023-06-17T08:52:16.801Z,69.60
2023-06-17T08:52:50.443Z,69.40
2023-06-17T08:53:24.273Z,69.70
2023-06-17T08:53:56.550Z,69.50
2023-06-17T08:54:29.056Z,69.40
2023-06-17T08:55:02.964Z,69.00
2023-06-17T08:55:35.813Z,69.50
2023-06-17T08:56:07.948Z,69.40
2023-06-17T08:56:41.248Z,69.60
2023-06-17T08:57:14.363Z,69.60
2023-06-17T08:57:52.017Z,69.00
2023-06-17T08:58:24.606Z,69.90
2023-06-17T08:58:57.103Z,69.40
2023-06-17T08:59:28.886Z,69.10
2023-06-17T09:00:00.721Z,69.30
2023-06-17T09:00:32.630Z,69.40
2023-06-17T09:01:07.840Z,69.30
2023-06-17T09:01:41.345Z,69.30
2023-06-17T09:02:15.833Z,70.00
2023-06-17T09:02:47.857Z,69.80
2023-06-17T09:03:22.092Z,68.90
2023-06-17T09:03:55.158Z,69.90
2023-06-17T09:04:27.560Z,70.00
2023-06-17T09:04:59.696Z,69.10
2023-06-17T09:05:31.624Z,69.70
2023-06-17T09:06:04.617Z,69.50
2023-06-17T09:06:36.561Z,69.70
2023-06-17T09:07:10.265Z,69.30
2023-06-17T09:07:42.950Z,70.00
2023-06-17T09:08:14.766Z,69.40
2023-06-17T09:08:46.961Z,69.90
2023-06-17T09:09:18.780Z,70.40
2023-06-17T09:09:56.296Z,70.00
2023-06-17T09:10:29.366Z,70.40
2023-06-17T09:11:11.192Z,69.90
2023-06-17T09:11:52.196Z,69.50
2023-06-17T09:12:26.088Z,69.50
2023-06-17T09:13:01.312Z,70.30
2023-06-17T09:13:33.138Z,70.50
2023-06-17T09:14:05.089Z,69.90
2023-06-17T09:14:37.493Z,69.80
2023-06-17T09:15:16.603Z,69.80
2023-06-17T09:15:48.444Z,70.10
2023-06-17T09:16:37.289Z,70.40
2023-06-17T09:17:09.459Z,70.20
2023-06-17T09:17:47.207Z,70.20
2023-06-17T09:18:21.678Z,67.00
2023-06-17T09:19:03.868Z,70.00
2023-06-17T09:19:40.661Z,67.30
2023-06-17T09:20:17.288Z,70.10
2023-06-17T09:20:58.362Z,70.00
2023-06-17T09:21:30.847Z,68.20
2023-06-17T09:22:07.350Z,70.50
2023-06-17T09:22:41.577Z,70.90
2023-06-17T09:23:17.705Z,69.90
2023-06-17T09:23:57.132Z,70.00
2023-06-17T09:24:32.120Z,70.30
2023-06-17T09:25:04.824Z,70.40
2023-06-17T09:25:36.643Z,68.90
2023-06-17T09:26:08.417Z,69.90
2023-06-17T09:26:42.612Z,70.10
2023-06-17T09:27:23.630Z,71.90
2023-06-17T09:28:11.733Z,70.10
2023-06-17T09:28:47.271Z,70.40
2023-06-17T09:29:19.215Z,70.60
2023-06-17T09:30:14.512Z,70.50
2023-06-17T09:30:54.419Z,70.00
2023-06-17T09:31:26.316Z,70.60
2023-06-17T09:31:59.093Z,70.40
2023-06-17T09:32:40.744Z,69.60
2023-06-17T09:33:21.060Z,70.60
2023-06-17T09:33:52.917Z,70.80
2023-06-17T09:34:27.693Z,69.80
2023-06-17T09:34:59.469Z,69.60
2023-06-17T09:35:37.859Z,70.10
2023-06-17T09:36:10.225Z,69.90
2023-06-17T09:36:42.642Z,70.40
2023-06-17T09:37:16.733Z,70.20
2023-06-17T09:38:02.661Z,70.00
2023-06-17T09:38:38.901Z,70.60
2023-06-17T09:39:12.230Z,70.70
2023-06-17T09:39:46.727Z,70.70
2023-06-17T09:40:19.324Z,71.00
2023-06-17T09:40:52.499Z,71.00
2023-06-17T09:41:25.661Z,70.00
2023-06-17T09:41:57.997Z,69.90
2023-06-17T09:42:32.986Z,70.40
2023-06-17T09:43:24.990Z,69.40
2023-06-17T09:43:58.648Z,70.40
2023-06-17T09:44:31.432Z,71.10
2023-06-17T09:45:07.613Z,71.00
2023-06-17T09:45:40.847Z,69.70
2023-06-17T09:46:13.002Z,70.30
2023-06-17T09:46:48.049Z,70.40
2023-06-17T09:47:23.769Z,70.00
2023-06-17T09:47:56.020Z,70.80
2023-06-17T09:48:36.589Z,70.50
2023-06-17T09:49:13.209Z,71.90
2023-06-17T09:49:46.806Z,71.60
2023-06-17T09:50:19.496Z,71.40
2023-06-17T09:50:58.407Z,71.40
2023-06-17T09:51:39.350Z,70.90
2023-06-17T09:52:12.308Z,71.60
2023-06-17T09:52:44.833Z,72.00
2023-06-17T09:53:17.046Z,71.20
2023-06-17T09:53:51.499Z,71.90
2023-06-17T09:54:24.195Z,70.50
2023-06-17T09:54:58.929Z,70.60
2023-06-17T09:55:30.896Z,70.70
2023-06-17T09:56:03.291Z,71.10
2023-06-17T09:56:36.883Z,72.70
2023-06-17T09:57:11.050Z,71.70
2023-06-17T09:57:44.778Z,71.30
2023-06-17T09:58:19.470Z,72.30
2023-06-17T09:58:54.466Z,71.70
2023-06-17T09:59:27.651Z,71.90
2023-06-17T10:00:11.017Z,72.10
2023-06-17T10:00:46.592Z,70.10
2023-06-17T10:01:18.801Z,72.00
2023-06-17T10:01:51.865Z,71.50
2023-06-17T10:02:23.915Z,71.80
2023-06-17T10:02:57.140Z,72.20
2023-06-17T10:03:29.252Z,72.20
2023-06-17T10:04:02.242Z,72.60
2023-06-17T10:04:36.502Z,72.40
2023-06-17T10:05:13.798Z,72.50
2023-06-17T10:05:56.070Z,70.00
2023-06-17T10:06:30.779Z,72.00
2023-06-17T10:07:04.431Z,72.20
2023-06-17T10:07:40.048Z,71.20
2023-06-17T10:08:12.549Z,71.50
2023-06-17T10:08:45.129Z,70.90
2023-06-17T10:09:17.374Z,71.30
2023-06-17T10:09:49.548Z,71.50
2023-06-17T10:10:24.120Z,71.70
2023-06-17T10:11:00.826Z,72.90
2023-06-17T10:11:34.572Z,73.70
2023-06-17T10:12:08.831Z,74.10
2023-06-17T10:12:45.440Z,73.40
2023-06-17T10:13:22.401Z,75.80
2023-06-17T10:14:09.512Z,77.70
2023-06-17T10:14:42.655Z,72.50
2023-06-17T10:15:18.657Z,75.80
2023-06-17T10:15:53.763Z,76.10
2023-06-17T10:16:31.975Z,77.30
2023-06-17T10:17:08.853Z,76.10
2023-06-17T10:17:43.354Z,76.00
2023-06-17T10:18:17.410Z,77.30
2023-06-17T10:18:53.136Z,77.10
2023-06-17T10:19:30.116Z,76.90
2023-06-17T10:20:06.785Z,77.30
2023-06-17T10:20:40.501Z,78.10
2023-06-17T10:21:14.251Z,78.40
2023-06-17T10:21:49.167Z,77.40
2023-06-17T10:44:36.446Z,68.20
2023-06-17T10:45:13.558Z,79.50
2023-06-17T10:46:26.550Z,88.90
2023-06-17T10:52:56.347Z,92.00
2023-06-17T10:56:22.171Z,90.80
2023-06-17T10:56:54.119Z,90.80
2023-06-17T10:57:33.635Z,90.80
2023-06-17T10:58:05.496Z,90.60
2023-06-17T10:58:44.387Z,76.80
2023-06-17T10:59:16.119Z,68.40
2023-06-17T10:59:47.929Z,68.50
2023-06-17T11:00:21.744Z,69.00
2023-06-17T11:01:06.146Z,67.60
2023-06-17T11:01:42.281Z,68.20
2023-06-17T11:02:14.102Z,68.50
2023-06-17T11:02:46.186Z,68.70
2023-06-17T11:03:18.473Z,68.50
2023-06-17T11:03:50.773Z,68.40
2023-06-17T11:04:22.882Z,68.20
2023-06-17T11:04:58.673Z,68.40
2023-06-17T11:05:37.035Z,68.10
2023-06-17T11:06:10.586Z,67.80
2023-06-17T11:06:46.597Z,67.90
2023-06-17T11:07:27.422Z,67.90
2023-06-17T11:07:59.238Z,67.60
2023-06-17T11:08:33.028Z,68.20
2023-06-17T11:09:05.861Z,67.80
2023-06-17T11:09:37.985Z,67.60
2023-06-17T11:10:10.158Z,67.70
2023-06-17T11:10:42.109Z,67.20
2023-06-17T11:11:16.024Z,67.70
2023-06-17T11:11:49.304Z,67.30
2023-06-17T11:12:21.776Z,66.70
2023-06-17T11:12:54.433Z,67.60
2023-06-17T11:13:26.224Z,67.50
2023-06-17T11:13:58.097Z,67.60
2023-06-17T11:14:31.466Z,67.70
2023-06-17T11:15:05.488Z,67.20
2023-06-17T11:15:37.345Z,67.30
2023-06-17T11:16:10.204Z,66.40
2023-06-17T11:16:42.019Z,67.10
2023-06-17T11:17:13.961Z,67.40
2023-06-17T11:17:45.911Z,67.30
2023-06-17T11:18:17.765Z,67.20
2023-06-17T11:18:51.810Z,66.30
2023-06-17T11:19:25.020Z,67.30
2023-06-17T11:19:56.949Z,67.20
2023-06-17T11:20:34.980Z,67.50
2023-06-17T11:21:07.738Z,67.10
2023-06-17T11:21:39.606Z,67.00
2023-06-17T11:22:12.726Z,67.30
2023-06-17T11:22:44.568Z,67.40
2023-06-17T11:23:17.151Z,67.40
2023-06-17T11:23:48.966Z,67.00
2023-06-17T11:24:20.888Z,67.10
2023-06-17T11:24:52.677Z,67.30
2023-06-17T11:25:35.969Z,67.40
2023-06-17T11:26:15.944Z,67.40
2023-06-17T11:26:49.216Z,67.30
2023-06-17T11:27:21.118Z,66.80
2023-06-17T11:27:53.010Z,67.10
2023-06-17T11:28:24.858Z,67.00
2023-06-17T11:28:56.960Z,67.10
2023-06-17T11:29:30.482Z,66.90
2023-06-17T11:30:04.826Z,67.00
2023-06-17T11:30:37.543Z,66.80
2023-06-17T11:31:09.700Z,67.10
2023-06-17T11:31:41.671Z,66.90
2023-06-17T11:32:14.589Z,66.90
2023-06-17T11:32:46.530Z,67.10
2023-06-17T11:33:22.073Z,66.40
2023-06-17T11:34:00.593Z,66.90
2023-06-17T11:34:33.610Z,66.60
2023-06-17T11:35:05.982Z,66.80
2023-06-17T11:35:38.310Z,66.60
2023-06-17T11:36:14.921Z,67.20
2023-06-17T11:36:54.221Z,66.60
2023-06-17T11:37:26.056Z,66.10
2023-06-17T11:37:57.938Z,66.90
2023-06-17T11:38:31.181Z,66.60
2023-06-17T11:39:03.876Z,66.70
2023-06-17T11:39:39.260Z,66.80
2023-06-17T11:40:13.231Z,66.60
2023-06-17T11:40:45.116Z,66.40
2023-06-17T11:41:17.509Z,66.80
2023-06-17T11:41:53.902Z,66.30
2023-06-17T11:42:26.504Z,66.10
2023-06-17T11:42:59.094Z,65.60
2023-06-17T11:43:31.277Z,66.50
2023-06-17T11:44:03.977Z,66.50
2023-06-17T11:44:36.782Z,66.60
2023-06-17T11:45:09.361Z,66.20
2023-06-17T11:45:42.086Z,66.10
2023-06-17T11:46:13.899Z,66.90
2023-06-17T11:46:50.487Z,65.80
2023-06-17T11:47:36.106Z,66.30
2023-06-17T11:48:08.539Z,65.80
2023-06-17T11:48:40.424Z,66.50
2023-06-17T11:49:14.513Z,65.50
2023-06-17T11:49:46.459Z,66.30
2023-06-17T11:50:19.733Z,66.60
2023-06-17T11:50:51.871Z,66.20
2023-06-17T11:51:24.556Z,66.30
2023-06-17T11:52:02.138Z,66.50
2023-06-17T11:52:35.346Z,66.00
2023-06-17T11:53:07.166Z,66.10
2023-06-17T11:53:39.446Z,66.20
2023-06-17T11:54:11.503Z,66.30
2023-06-17T11:54:49.498Z,66.30
2023-06-17T11:55:21.382Z,66.60
2023-06-17T11:55:53.395Z,66.30
2023-06-17T11:56:25.642Z,66.10
2023-06-17T11:56:58.042Z,66.30
2023-06-17T11:57:30.262Z,66.20
2023-06-17T11:58:04.519Z,66.40
2023-06-17T11:58:40.789Z,66.00
2023-06-17T11:59:13.328Z,66.20
2023-06-17T11:59:45.447Z,66.40
2023-06-17T12:00:17.508Z,66.30
2023-06-17T12:00:49.355Z,66.30
2023-06-17T12:01:28.126Z,66.50
2023-06-17T12:02:00.086Z,65.70
2023-06-17T12:02:37.518Z,66.30
2023-06-17T12:03:09.445Z,65.80
2023-06-17T12:03:47.581Z,66.90
2023-06-17T12:04:19.725Z,66.20
2023-06-17T12:04:51.724Z,66.20
2023-06-17T12:05:30.165Z,66.70
2023-06-17T12:06:02.163Z,65.60
2023-06-17T12:06:34.173Z,66.10
2023-06-17T12:07:07.520Z,65.20
2023-06-17T12:07:43.575Z,66.10
2023-06-17T12:08:17.398Z,65.70
2023-06-17T12:08:59.862Z,65.90
2023-06-17T12:09:38.857Z,65.80
2023-06-17T12:10:13.080Z,65.80
2023-06-17T12:10:44.971Z,65.80
2023-06-17T12:11:27.847Z,66.20
2023-06-17T12:12:00.192Z,65.80